createdAt,value
2019-02-24T00:01:48.041Z,99.90
2019-02-24T00:04:16.748Z,99.90
2019-02-24T00:07:04.878Z,99.90
2019-02-24T00:09:33.625Z,99.90
2019-02-24T00:12:02.362Z,99.90
2019-02-24T00:14:31.102Z,99.90
2019-02-24T00:16:59.835Z,99.90
2019-02-24T00:19:28.573Z,99.90
2019-02-24T00:21:58.618Z,99.90
2019-02-24T00:24:27.340Z,99.90
2019-02-24T00:26:56.077Z,99.90
2019-02-24T00:29:24.765Z,99.90
2019-02-24T00:31:53.572Z,99.90
2019-02-24T00:34:22.278Z,99.90
2019-02-24T00:36:50.990Z,99.90
2019-02-24T00:39:19.727Z,99.90
2019-02-24T00:41:48.496Z,99.90
2019-02-24T00:44:18.255Z,99.90
2019-02-24T00:46:46.983Z,99.90
2019-02-24T00:49:15.712Z,99.90
2019-02-24T00:51:44.426Z,99.90
2019-02-24T00:54:13.121Z,99.90
2019-02-24T00:56:41.866Z,99.90
2019-02-24T00:59:10.566Z,99.90
2019-02-24T01:01:39.314Z,99.90
2019-02-24T01:04:08.068Z,99.90
2019-02-24T01:06:39.060Z,99.90
2019-02-24T01:09:07.798Z,99.90
2019-02-24T01:11:36.537Z,99.90
2019-02-24T01:14:05.254Z,99.90
2019-02-24T01:16:34.058Z,99.90
2019-02-24T01:19:02.895Z,99.90
2019-02-24T01:21:31.588Z,99.90
2019-02-24T01:24:00.314Z,99.90
2019-02-24T01:26:29.054Z,99.90
2019-02-24T01:28:57.809Z,99.90
2019-02-24T01:31:26.600Z,99.90
2019-02-24T01:33:55.323Z,99.90
2019-02-24T01:36:24.051Z,99.90
2019-02-24T01:38:52.869Z,99.90
2019-02-24T01:41:24.030Z,99.90
2019-02-24T01:43:52.759Z,99.90
2019-02-24T01:46:21.473Z,99.90
2019-02-24T01:48:50.199Z,99.90
2019-02-24T01:51:18.938Z,99.90
2019-02-24T01:53:47.695Z,99.90
2019-02-24T01:56:16.425Z,99.90
2019-02-24T01:58:45.135Z,99.90
2019-02-24T02:01:13.961Z,99.90
2019-02-24T02:03:42.686Z,99.90
2019-02-24T02:06:11.429Z,99.90
2019-02-24T02:08:40.162Z,99.90
2019-02-24T02:11:09.058Z,99.90
2019-02-24T02:13:38.102Z,99.90
2019-02-24T02:16:06.829Z,99.90
2019-02-24T02:18:35.549Z,99.90
2019-02-24T02:21:04.309Z,99.90
2019-02-24T02:23:33.080Z,99.90
2019-02-24T02:26:01.792Z,99.90
2019-02-24T02:28:30.605Z,99.90
2019-02-24T02:30:59.318Z,99.90
2019-02-24T02:33:28.032Z,99.90
2019-02-24T02:35:56.802Z,99.90
2019-02-24T02:38:25.557Z,99.90
2019-02-24T02:40:54.305Z,99.90
2019-02-24T02:43:23.127Z,99.90
2019-02-24T02:45:51.857Z,99.90
2019-02-24T02:48:20.565Z,99.90
2019-02-24T02:50:49.287Z,99.90
2019-02-24T02:53:18.162Z,99.90
2019-02-24T02:55:46.874Z,99.90
2019-02-24T02:58:15.655Z,99.90
2019-02-24T03:00:46.486Z,99.90
2019-02-24T03:03:15.199Z,99.90
2019-02-24T03:05:54.263Z,99.90
2019-02-24T03:08:42.034Z,99.90
2019-02-24T03:11:10.819Z,99.90
2019-02-24T03:13:39.545Z,99.90
2019-02-24T03:16:08.266Z,99.90
2019-02-24T03:18:37.170Z,99.90
2019-02-24T03:21:05.890Z,99.90
2019-02-24T03:23:34.603Z,99.90
2019-02-24T03:26:03.345Z,99.90
2019-02-24T03:28:32.098Z,99.90
2019-02-24T03:31:00.828Z,99.90
2019-02-24T03:33:29.611Z,99.90
2019-02-24T03:35:58.326Z,99.90
2019-02-24T03:38:27.104Z,99.90
2019-02-24T03:40:55.858Z,99.90
2019-02-24T03:43:24.561Z,99.90
2019-02-24T03:45:53.373Z,99.90
2019-02-24T03:48:22.086Z,99.90
2019-02-24T03:50:50.794Z,99.90
2019-02-24T03:53:19.558Z,99.90
2019-02-24T03:55:48.293Z,99.90
2019-02-24T03:58:17.376Z,99.90
2019-02-24T04:00:46.145Z,99.90
2019-02-24T04:03:14.871Z,99.90
2019-02-24T04:05:43.569Z,99.90
2019-02-24T04:08:12.263Z,99.90
2019-02-24T04:10:40.969Z,99.90
2019-02-24T04:13:09.767Z,99.90
2019-02-24T04:15:38.745Z,99.90
2019-02-24T04:18:07.445Z,99.90
2019-02-24T04:20:36.198Z,99.90
2019-02-24T04:23:04.985Z,99.90
2019-02-24T04:25:33.702Z,99.90
2019-02-24T04:28:02.421Z,99.90
2019-02-24T04:30:31.142Z,99.90
2019-02-24T04:32:59.894Z,99.90
2019-02-24T04:35:28.628Z,99.90
2019-02-24T04:37:57.329Z,99.90
2019-02-24T04:40:26.018Z,99.90
2019-02-24T04:42:54.983Z,99.90
2019-02-24T04:45:23.693Z,99.90
2019-02-24T04:47:53.327Z,99.90
2019-02-24T04:50:22.038Z,99.90
2019-02-24T04:52:50.854Z,99.90
2019-02-24T04:55:38.840Z,99.90
2019-02-24T04:58:07.666Z,99.90
2019-02-24T05:00:36.443Z,99.90
2019-02-24T05:03:05.160Z,99.90
2019-02-24T05:05:33.887Z,99.90
2019-02-24T05:08:02.594Z,99.90
2019-02-24T05:10:31.369Z,99.90
2019-02-24T05:13:00.138Z,99.90
2019-02-24T05:15:28.906Z,99.90
2019-02-24T05:17:57.613Z,99.90
2019-02-24T05:20:26.347Z,99.90
2019-02-24T05:22:55.050Z,99.90
2019-02-24T05:25:23.778Z,99.90
2019-02-24T05:27:52.525Z,99.90
2019-02-24T05:30:21.338Z,99.90
2019-02-24T05:32:50.066Z,99.90
2019-02-24T05:35:19.949Z,99.90
2019-02-24T05:37:48.765Z,99.90
2019-02-24T05:40:17.483Z,99.90
2019-02-24T05:42:46.189Z,99.90
2019-02-24T05:45:15.013Z,99.90
2019-02-24T05:47:43.766Z,99.90
2019-02-24T05:50:12.514Z,99.90
2019-02-24T05:52:41.339Z,99.90
2019-02-24T05:55:10.039Z,99.90
2019-02-24T05:57:38.814Z,99.90
2019-02-24T06:00:07.549Z,99.90
2019-02-24T06:02:36.267Z,99.90
2019-02-24T06:05:05.154Z,99.90
2019-02-24T06:07:33.986Z,99.90
2019-02-24T06:10:02.700Z,99.90
2019-02-24T06:12:31.486Z,99.90
2019-02-24T06:15:00.376Z,99.90
2019-02-24T06:17:29.161Z,99.90
2019-02-24T06:19:57.897Z,99.90
2019-02-24T06:22:26.613Z,99.90
2019-02-24T06:24:55.326Z,99.90
2019-02-24T06:27:26.290Z,99.90
2019-02-24T06:30:04.302Z,99.90
2019-02-24T06:32:25.434Z,99.90
2019-02-24T06:34:54.271Z,99.90
2019-02-24T06:37:22.984Z,99.90
2019-02-24T06:39:51.755Z,99.90
2019-02-24T06:42:20.470Z,99.90
2019-02-24T06:44:49.180Z,99.90
2019-02-24T06:47:17.968Z,99.90
2019-02-24T06:49:46.833Z,99.90
2019-02-24T06:52:15.599Z,99.90
2019-02-24T06:54:44.314Z,99.90
2019-02-24T06:57:13.830Z,99.90
2019-02-24T06:59:42.610Z,99.90
2019-02-24T07:02:11.311Z,99.90
2019-02-24T07:04:40.791Z,99.90
2019-02-24T07:07:09.497Z,99.90
2019-02-24T07:09:38.267Z,99.90
2019-02-24T07:12:07.091Z,99.90
2019-02-24T07:14:35.829Z,99.90
2019-02-24T07:17:04.613Z,99.90
2019-02-24T07:19:35.219Z,99.90
2019-02-24T07:22:03.833Z,99.90
2019-02-24T07:24:32.537Z,99.90
2019-02-24T07:27:01.269Z,99.90
2019-02-24T07:29:30.098Z,99.90
2019-02-24T07:31:58.823Z,99.90
2019-02-24T07:34:27.700Z,99.90
2019-02-24T07:36:56.556Z,99.90
2019-02-24T07:39:25.617Z,99.90
2019-02-24T07:41:54.353Z,99.90
2019-02-24T07:44:23.089Z,99.90
2019-02-24T07:46:52.011Z,99.90
2019-02-24T07:49:20.751Z,99.90
2019-02-24T07:51:49.526Z,99.90
2019-02-24T07:54:18.282Z,99.90
2019-02-24T07:56:47.034Z,99.90
2019-02-24T07:59:15.781Z,99.90
2019-02-24T08:01:44.547Z,99.90
2019-02-24T08:04:13.325Z,99.90
2019-02-24T08:06:42.063Z,99.90
2019-02-24T08:09:11.773Z,99.90
2019-02-24T08:11:40.670Z,99.90
2019-02-24T08:14:09.456Z,99.90
2019-02-24T08:16:38.218Z,99.90
2019-02-24T08:19:06.997Z,99.90
2019-02-24T08:21:35.715Z,99.90
2019-02-24T08:24:04.455Z,99.90
2019-02-24T08:26:33.278Z,99.90
2019-02-24T08:29:02.082Z,99.90
2019-02-24T08:31:30.818Z,99.90
2019-02-24T08:34:01.737Z,99.90
2019-02-24T08:36:30.895Z,99.90
2019-02-24T08:38:59.808Z,99.90
2019-02-24T08:41:28.522Z,99.90
2019-02-24T08:43:57.234Z,99.90
2019-02-24T08:46:25.971Z,99.90
2019-02-24T08:48:54.723Z,99.90
2019-02-24T08:51:23.548Z,99.90
2019-02-24T08:53:53.214Z,99.90
2019-02-24T08:56:21.945Z,99.90
2019-02-24T08:58:50.687Z,99.90
2019-02-24T09:01:19.853Z,99.90
2019-02-24T09:03:48.591Z,99.90
2019-02-24T09:06:19.179Z,99.90
2019-02-24T09:08:47.982Z,99.90
2019-02-24T09:11:16.719Z,99.90
2019-02-24T09:13:45.420Z,99.90
2019-02-24T09:16:14.160Z,99.90
2019-02-24T09:18:42.870Z,99.90
2019-02-24T09:21:11.656Z,99.90
2019-02-24T09:23:40.397Z,99.90
2019-02-24T09:26:09.186Z,99.90
2019-02-24T09:28:37.971Z,99.90
2019-02-24T09:31:06.679Z,99.90
2019-02-24T09:33:35.486Z,99.90
2019-02-24T09:36:04.190Z,99.90
2019-02-24T09:38:32.963Z,99.90
2019-02-24T09:41:01.697Z,99.90
2019-02-24T09:43:30.482Z,99.90
2019-02-24T09:45:59.224Z,99.90
2019-02-24T09:48:28.019Z,99.90
2019-02-24T09:50:56.751Z,99.90
2019-02-24T09:53:25.480Z,99.90
2019-02-24T09:55:56.271Z,99.90
2019-02-24T09:58:25.019Z,99.90
2019-02-24T10:01:13.057Z,99.90
2019-02-24T10:03:54.330Z,99.90
2019-02-24T10:06:23.083Z,99.90
2019-02-24T10:08:51.809Z,99.90
2019-02-24T10:11:20.537Z,99.90
2019-02-24T10:13:51.164Z,99.90
2019-02-24T10:16:23.362Z,99.90
2019-02-24T10:18:52.141Z,99.90
2019-02-24T10:21:21.043Z,99.90
2019-02-24T10:23:49.761Z,99.90
2019-02-24T10:26:18.475Z,99.90
2019-02-24T10:28:47.821Z,98.10
2019-02-24T10:31:19.745Z,97.00
2019-02-24T10:33:47.210Z,95.10
2019-02-24T10:36:15.952Z,96.00
2019-02-24T10:38:44.674Z,93.60
2019-02-24T10:41:13.466Z,91.00
2019-02-24T10:43:42.296Z,93.00
2019-02-24T10:46:11.432Z,91.20
2019-02-24T10:48:40.248Z,91.60
2019-02-24T10:51:09.098Z,84.80
2019-02-24T10:53:37.810Z,85.30
2019-02-24T10:56:06.550Z,80.10
2019-02-24T10:58:35.310Z,74.30
2019-02-24T11:01:04.015Z,76.20
2019-02-24T11:03:32.706Z,72.20
2019-02-24T11:06:01.468Z,76.70
2019-02-24T11:08:30.206Z,65.10
2019-02-24T11:10:58.927Z,60.50
2019-02-24T11:13:27.650Z,63.00
2019-02-24T11:15:56.467Z,65.60
2019-02-24T11:18:25.183Z,60.90
2019-02-24T11:20:53.954Z,61.80
2019-02-24T11:23:22.687Z,60.20
2019-02-24T11:25:54.663Z,59.50
2019-02-24T11:28:23.367Z,58.90
2019-02-24T11:30:52.118Z,58.00
2019-02-24T11:33:21.230Z,55.00
2019-02-24T11:35:49.931Z,53.70
2019-02-24T11:38:21.186Z,52.50
2019-02-24T11:40:50.146Z,53.80
2019-02-24T11:43:18.850Z,53.00
2019-02-24T11:45:47.594Z,53.30
2019-02-24T11:48:16.415Z,51.90
2019-02-24T11:50:45.222Z,56.30
2019-02-24T11:53:14.314Z,56.10
2019-02-24T11:55:43.062Z,51.20
2019-02-24T11:58:11.781Z,54.30
2019-02-24T12:00:40.540Z,55.70
2019-02-24T12:03:09.237Z,57.50
2019-02-24T12:05:37.942Z,61.40
2019-02-24T12:08:06.714Z,60.50
2019-02-24T12:10:35.427Z,57.30
2019-02-24T12:13:04.249Z,59.10
2019-02-24T12:15:32.953Z,52.40
2019-02-24T12:18:01.699Z,54.80
2019-02-24T12:20:30.433Z,53.60
2019-02-24T12:22:59.146Z,53.30
2019-02-24T12:25:27.843Z,51.90
2019-02-24T12:27:56.571Z,55.00
2019-02-24T12:30:25.603Z,54.60
2019-02-24T12:32:54.342Z,55.10
2019-02-24T12:35:23.087Z,58.00
2019-02-24T12:37:51.801Z,54.60
2019-02-24T12:40:20.526Z,55.00
2019-02-24T12:42:49.227Z,51.80
2019-02-24T12:45:17.954Z,49.60
2019-02-24T12:47:46.699Z,49.60
2019-02-24T12:50:15.526Z,48.90
2019-02-24T12:52:44.271Z,47.90
2019-02-24T12:55:12.986Z,44.90
2019-02-24T12:57:41.729Z,45.80
2019-02-24T13:00:13.794Z,48.40
2019-02-24T13:02:43.181Z,48.40
2019-02-24T13:05:11.934Z,50.90
2019-02-24T13:07:40.630Z,52.00
2019-02-24T13:10:11.256Z,50.20
2019-02-24T13:12:39.996Z,48.40
2019-02-24T13:15:08.874Z,47.20
2019-02-24T13:17:37.672Z,49.80
2019-02-24T13:20:07.282Z,48.70
2019-02-24T13:22:36.267Z,50.30
2019-02-24T13:25:05.018Z,51.60
2019-02-24T13:27:33.922Z,48.90
2019-02-24T13:30:03.023Z,48.00
2019-02-24T13:32:31.797Z,47.50
2019-02-24T13:35:00.834Z,46.00
2019-02-24T13:37:30.820Z,45.20
2019-02-24T13:39:59.770Z,45.20
2019-02-24T13:42:28.566Z,47.80
2019-02-24T13:44:57.386Z,45.80
2019-02-24T13:47:26.222Z,46.20
2019-02-24T13:49:54.950Z,46.40
2019-02-24T13:52:23.782Z,47.60
2019-02-24T13:54:52.456Z,47.80
2019-02-24T13:57:21.354Z,46.20
2019-02-24T13:59:50.048Z,47.00
2019-02-24T14:02:24.134Z,47.00
2019-02-24T14:04:52.373Z,45.60
2019-02-24T14:07:21.881Z,44.80
2019-02-24T14:09:51.305Z,45.80
2019-02-24T14:12:21.175Z,43.90
2019-02-24T14:14:50.418Z,44.20
2019-02-24T14:17:19.202Z,45.00
2019-02-24T14:19:48.142Z,42.30
2019-02-24T14:22:17.058Z,42.50
2019-02-24T14:24:45.774Z,42.90
2019-02-24T14:27:14.700Z,43.50
2019-02-24T14:29:43.562Z,42.00
2019-02-24T14:32:12.278Z,42.20
2019-02-24T14:34:40.982Z,42.80
2019-02-24T14:37:09.701Z,42.70
2019-02-24T14:39:38.398Z,42.90
2019-02-24T14:42:07.124Z,44.90
2019-02-24T14:44:35.838Z,46.30
2019-02-24T14:47:04.602Z,47.80
2019-02-24T14:49:33.346Z,47.90
2019-02-24T14:52:02.086Z,49.20
2019-02-24T14:54:30.792Z,50.50
2019-02-24T14:56:59.584Z,52.60
2019-02-24T14:59:29.282Z,54.00
2019-02-24T15:01:57.998Z,55.20
2019-02-24T15:04:26.705Z,54.30
2019-02-24T15:06:55.483Z,48.50
2019-02-24T15:09:24.371Z,48.30
2019-02-24T15:11:53.142Z,53.90
2019-02-24T15:14:21.922Z,54.60
2019-02-24T15:16:50.634Z,57.80
2019-02-24T15:19:20.898Z,56.70
2019-02-24T15:21:49.585Z,54.40
2019-02-24T15:24:18.385Z,54.70
2019-02-24T15:26:47.099Z,57.90
2019-02-24T15:29:15.797Z,57.60
2019-02-24T15:31:44.520Z,56.40
2019-02-24T15:34:13.215Z,58.20
2019-02-24T15:36:41.906Z,56.30
2019-02-24T15:39:10.622Z,55.10
2019-02-24T15:41:39.815Z,54.70
2019-02-24T15:44:10.108Z,55.30
2019-02-24T15:46:39.008Z,54.50
2019-02-24T15:49:07.698Z,57.40
2019-02-24T15:51:36.395Z,59.30
2019-02-24T15:54:05.121Z,57.80
2019-02-24T15:56:33.894Z,59.20
2019-02-24T15:59:02.864Z,59.30
2019-02-24T16:01:31.578Z,57.40
2019-02-24T16:04:00.274Z,55.70
2019-02-24T16:06:36.925Z,57.60
2019-02-24T16:08:59.490Z,53.60
2019-02-24T16:11:28.521Z,54.10
2019-02-24T16:13:57.210Z,51.90
2019-02-24T16:16:26.061Z,52.00
2019-02-24T16:18:54.846Z,51.50
2019-02-24T16:21:23.585Z,52.70
2019-02-24T16:23:52.346Z,52.60
2019-02-24T16:26:22.146Z,52.20
2019-02-24T16:28:50.873Z,53.40
2019-02-24T16:31:19.658Z,52.60
2019-02-24T16:33:48.375Z,53.00
2019-02-24T16:36:17.350Z,52.60
2019-02-24T16:38:46.379Z,52.80
2019-02-24T16:41:15.066Z,53.80
2019-02-24T16:43:43.790Z,56.50
2019-02-24T16:46:12.542Z,60.50
2019-02-24T16:48:41.470Z,67.10
2019-02-24T16:51:10.220Z,72.30
2019-02-24T16:53:39.809Z,76.20
2019-02-24T16:56:08.574Z,78.30
2019-02-24T16:58:37.284Z,78.60
2019-02-24T17:01:06.025Z,81.80
2019-02-24T17:03:34.810Z,86.30
2019-02-24T17:06:24.815Z,86.20
2019-02-24T17:09:00.265Z,84.50
2019-02-24T17:11:24.082Z,82.60
2019-02-24T17:13:52.818Z,84.70
2019-02-24T17:16:21.533Z,87.70
2019-02-24T17:18:50.242Z,85.60
2019-02-24T17:21:18.969Z,90.00
2019-02-24T17:23:49.959Z,91.00
2019-02-24T17:26:18.111Z,90.30
2019-02-24T17:28:46.826Z,89.50
2019-02-24T17:31:15.660Z,90.80
2019-02-24T17:33:44.372Z,91.00
2019-02-24T17:36:13.222Z,92.90
2019-02-24T17:38:42.002Z,93.50
2019-02-24T17:41:10.702Z,94.70
2019-02-24T17:43:39.441Z,94.60
2019-02-24T17:46:08.162Z,94.80
2019-02-24T17:48:36.971Z,95.60
2019-02-24T17:51:05.674Z,95.70
2019-02-24T17:53:34.387Z,96.80
2019-02-24T17:56:03.194Z,96.70
2019-02-24T17:58:31.913Z,96.80
2019-02-24T18:01:02.462Z,97.10
2019-02-24T18:03:39.146Z,99.10
2019-02-24T18:06:01.597Z,99.90
2019-02-24T18:08:30.305Z,99.90
2019-02-24T18:10:59.018Z,99.90
2019-02-24T18:13:28.623Z,99.90
2019-02-24T18:15:57.314Z,99.90
2019-02-24T18:18:26.071Z,99.90
2019-02-24T18:20:54.794Z,99.90
2019-02-24T18:23:23.504Z,99.90
2019-02-24T18:25:52.207Z,99.90
2019-02-24T18:28:20.926Z,99.90
2019-02-24T18:30:49.670Z,99.90
2019-02-24T18:33:18.374Z,99.90
2019-02-24T18:35:47.096Z,99.90
2019-02-24T18:38:15.794Z,99.90
2019-02-24T18:40:44.494Z,99.90
2019-02-24T18:43:15.538Z,99.90
2019-02-24T18:45:44.240Z,99.90
2019-02-24T18:48:12.953Z,99.90
2019-02-24T18:50:41.670Z,99.90
2019-02-24T18:53:10.391Z,99.90
2019-02-24T18:55:39.095Z,99.90
2019-02-24T18:58:07.823Z,99.90
2019-02-24T19:00:36.518Z,99.90
2019-02-24T19:03:05.506Z,99.90
2019-02-24T19:05:34.239Z,99.90
2019-02-24T19:08:02.939Z,99.90
2019-02-24T19:10:31.739Z,99.90
2019-02-24T19:13:00.482Z,99.90
2019-02-24T19:15:29.209Z,99.90
2019-02-24T19:17:57.910Z,99.90
2019-02-24T19:20:26.714Z,99.90
2019-02-24T19:22:55.422Z,99.90
2019-02-24T19:25:24.154Z,99.90
2019-02-24T19:27:52.854Z,99.90
2019-02-24T19:30:21.571Z,99.90
2019-02-24T19:32:50.298Z,99.90
2019-02-24T19:35:19.012Z,99.90
2019-02-24T19:37:47.733Z,99.90
2019-02-24T19:40:16.977Z,99.90
2019-02-24T19:42:45.738Z,99.90
2019-02-24T19:45:15.799Z,99.90
2019-02-24T19:47:45.085Z,99.90
2019-02-24T19:50:15.311Z,99.90
2019-02-24T19:52:44.027Z,99.90
2019-02-24T19:55:12.795Z,99.90
2019-02-24T19:57:41.518Z,99.90
2019-02-24T20:00:28.522Z,99.90
2019-02-24T20:02:57.231Z,99.90
2019-02-24T20:05:25.969Z,99.90
2019-02-24T20:07:54.710Z,99.90
2019-02-24T20:10:23.426Z,99.90
2019-02-24T20:12:52.142Z,99.90
2019-02-24T20:15:21.703Z,99.90
2019-02-24T20:17:50.415Z,99.90
2019-02-24T20:20:19.117Z,99.90
2019-02-24T20:22:47.962Z,99.90
2019-02-24T20:25:16.907Z,99.90
2019-02-24T20:27:45.630Z,99.90
2019-02-24T20:30:16.829Z,99.90
2019-02-24T20:32:45.549Z,99.90
2019-02-24T20:35:14.337Z,99.90
2019-02-24T20:37:43.059Z,99.90
2019-02-24T20:40:12.038Z,99.90
2019-02-24T20:42:40.734Z,99.90
2019-02-24T20:45:10.566Z,99.90
2019-02-24T20:47:39.280Z,99.90
2019-02-24T20:50:09.362Z,99.90
2019-02-24T20:52:38.069Z,99.90
2019-02-24T20:55:08.278Z,99.90
2019-02-24T20:57:56.317Z,99.90
2019-02-24T21:00:27.758Z,99.90
2019-02-24T21:02:56.486Z,99.90
2019-02-24T21:05:25.205Z,99.90
2019-02-24T21:07:53.920Z,99.90
2019-02-24T21:10:22.644Z,99.90
2019-02-24T21:12:51.358Z,99.90
2019-02-24T21:15:20.308Z,99.90
2019-02-24T21:17:49.902Z,99.90
2019-02-24T21:20:20.839Z,99.90
2019-02-24T21:22:50.616Z,99.90
2019-02-24T21:25:19.713Z,99.90
2019-02-24T21:27:48.507Z,99.90
2019-02-24T21:30:17.272Z,99.90
2019-02-24T21:32:46.006Z,99.90
2019-02-24T21:35:14.690Z,99.90
2019-02-24T21:37:43.397Z,99.90
2019-02-24T21:40:12.906Z,99.90
2019-02-24T21:42:42.376Z,99.90
2019-02-24T21:45:13.230Z,99.90
2019-02-24T21:47:41.983Z,99.90
2019-02-24T21:50:11.690Z,99.90
2019-02-24T21:52:40.385Z,99.90
2019-02-24T21:55:09.166Z,99.90
2019-02-24T21:57:38.026Z,99.90
2019-02-24T22:00:10.178Z,99.90
2019-02-24T22:02:38.901Z,99.90
2019-02-24T22:05:08.202Z,99.90
2019-02-24T22:07:36.890Z,99.90
2019-02-24T22:10:06.531Z,99.90
2019-02-24T22:12:35.416Z,99.90
2019-02-24T22:15:04.615Z,99.90
2019-02-24T22:17:33.331Z,99.90
2019-02-24T22:20:02.085Z,99.90
2019-02-24T22:22:30.804Z,99.90
2019-02-24T22:27:45.366Z,99.90
2019-02-24T22:30:15.507Z,99.90
2019-02-24T22:32:44.222Z,99.90
2019-02-24T22:35:12.969Z,99.90
2019-02-24T22:37:41.710Z,99.90
2019-02-24T22:40:11.226Z,99.90
2019-02-24T22:42:39.959Z,99.90
2019-02-24T22:45:10.651Z,99.90
2019-02-24T22:47:39.350Z,99.90
2019-02-24T22:50:08.670Z,99.90
2019-02-24T22:52:37.374Z,99.90
2019-02-24T22:55:06.190Z,99.90
2019-02-24T22:57:34.933Z,99.90
2019-02-24T23:00:04.824Z,99.90
2019-02-24T23:02:33.530Z,99.90
2019-02-24T23:05:02.306Z,99.90
2019-02-24T23:07:31.037Z,99.90
2019-02-24T23:09:59.733Z,99.90
2019-02-24T23:12:28.453Z,99.90
2019-02-24T23:14:57.246Z,99.90
2019-02-24T23:17:25.951Z,99.90
2019-02-24T23:19:54.682Z,99.90
2019-02-24T23:22:23.389Z,99.90
2019-02-24T23:24:52.115Z,99.90
2019-02-24T23:27:20.845Z,99.90
2019-02-24T23:29:49.570Z,99.90
2019-02-24T23:32:18.386Z,99.90
2019-02-24T23:34:47.106Z,99.90
2019-02-24T23:37:15.821Z,99.90
2019-02-24T23:39:44.540Z,99.90
2019-02-24T23:42:13.322Z,99.90
2019-02-24T23:44:42.050Z,99.90
2019-02-24T23:47:10.766Z,99.90
2019-02-24T23:49:39.493Z,99.90
2019-02-24T23:52:08.189Z,99.90
2019-02-24T23:54:36.894Z,99.90
2019-02-24T23:57:05.694Z,99.90
2019-02-24T23:59:34.405Z,99.90
